sensor_id;sensor_type;location;lat;lon;timestamp;pressure;altitude;pressure_sealevel;temperature;humidity
22333;BME280;11334;36.986;-121.936;2022-09-09T00:03:50;100066.31;;;27.71;49.44
22333;BME280;11334;36.986;-121.936;2022-09-09T00:06:27;100069.84;;;27.71;49.46
22333;BME280;11334;36.986;-121.936;2022-09-09T00:09:08;100061.56;;;27.86;49.38
22333;BME280;11334;36.986;-121.936;2022-09-09T00:11:43;100066.69;;;28.26;48.23
22333;BME280;11334;36.986;-121.936;2022-09-09T00:14:26;100066.81;;;28.90;47.38
22333;BME280;11334;36.986;-121.936;2022-09-09T00:17:04;100068.78;;;29.49;45.21
22333;BME280;11334;36.986;-121.936;2022-09-09T00:22:29;100065.22;;;30.80;42.23
22333;BME280;11334;36.986;-121.936;2022-09-09T00:25:10;100057.38;;;31.40;41.03
22333;BME280;11334;36.986;-121.936;2022-09-09T00:27:50;100061.28;;;31.95;39.82
22333;BME280;11334;36.986;-121.936;2022-09-09T00:30:35;100065.56;;;32.10;39.06
22333;BME280;11334;36.986;-121.936;2022-09-09T00:33:14;100066.81;;;32.25;39.18
22333;BME280;11334;36.986;-121.936;2022-09-09T00:36:00;100050.44;;;33.10;37.90
22333;BME280;11334;36.986;-121.936;2022-09-09T00:39:02;100059.16;;;33.93;36.21
22333;BME280;11334;36.986;-121.936;2022-09-09T00:42:33;100053.72;;;34.46;35.58
22333;BME280;11334;36.986;-121.936;2022-09-09T00:44:38;100050.59;;;34.73;34.76
22333;BME280;11334;36.986;-121.936;2022-09-09T00:58:26;100047.13;;;36.02;32.56
22333;BME280;11334;36.986;-121.936;2022-09-09T01:01:11;100049.84;;;36.10;33.26
22333;BME280;11334;36.986;-121.936;2022-09-09T01:03:56;100051.97;;;36.25;32.55
22333;BME280;11334;36.986;-121.936;2022-09-09T01:06:36;100047.50;;;36.33;32.44
22333;BME280;11334;36.986;-121.936;2022-09-09T01:09:41;100056.28;;;36.14;32.43
22333;BME280;11334;36.986;-121.936;2022-09-09T01:12:34;100057.66;;;35.68;32.90
22333;BME280;11334;36.986;-121.936;2022-09-09T01:15:12;100062.53;;;34.85;33.58
22333;BME280;11334;36.986;-121.936;2022-09-09T01:26:11;100057.94;;;31.63;39.10
22333;BME280;11334;36.986;-121.936;2022-09-09T01:28:43;100047.88;;;30.97;40.27
22333;BME280;11334;36.986;-121.936;2022-09-09T01:31:14;100044.53;;;30.29;41.68
22333;BME280;11334;36.986;-121.936;2022-09-09T01:33:41;100030.53;;;29.67;43.38
22333;BME280;11334;36.986;-121.936;2022-09-09T01:38:55;100053.06;;;28.49;46.04
22333;BME280;11334;36.986;-121.936;2022-09-09T01:41:22;100054.41;;;28.00;47.38
22333;BME280;11334;36.986;-121.936;2022-09-09T01:43:48;100044.69;;;27.46;48.53
22333;BME280;11334;36.986;-121.936;2022-09-09T01:46:18;100051.66;;;27.14;49.00
22333;BME280;11334;36.986;-121.936;2022-09-09T01:48:46;100058.34;;;26.74;50.66
22333;BME280;11334;36.986;-121.936;2022-09-09T01:51:13;100065.47;;;26.40;51.60
22333;BME280;11334;36.986;-121.936;2022-09-09T01:53:41;100071.75;;;26.02;52.68
22333;BME280;11334;36.986;-121.936;2022-09-09T02:05:15;100098.34;;;24.95;55.46
22333;BME280;11334;36.986;-121.936;2022-09-09T02:07:42;100097.34;;;24.65;56.23
22333;BME280;11334;36.986;-121.936;2022-09-09T02:10:15;100081.00;;;24.50;56.85
22333;BME280;11334;36.986;-121.936;2022-09-09T02:12:47;100089.81;;;24.31;57.23
22333;BME280;11334;36.986;-121.936;2022-09-09T02:15:29;100077.19;;;24.10;57.53
22333;BME280;11334;36.986;-121.936;2022-09-09T02:17:58;100085.19;;;23.95;58.47
22333;BME280;11334;36.986;-121.936;2022-09-09T02:20:28;100087.00;;;23.85;59.08
22333;BME280;11334;36.986;-121.936;2022-09-09T02:22:58;100082.81;;;23.73;59.35
22333;BME280;11334;36.986;-121.936;2022-09-09T02:25:27;100082.72;;;23.63;59.24
22333;BME280;11334;36.986;-121.936;2022-09-09T02:27:55;100094.13;;;23.44;60.16
22333;BME280;11334;36.986;-121.936;2022-09-09T02:30:24;100083.44;;;23.32;59.82
22333;BME280;11334;36.986;-121.936;2022-09-09T02:32:52;100093.31;;;23.22;60.26
22333;BME280;11334;36.986;-121.936;2022-09-09T02:35:23;100087.00;;;23.12;60.58
22333;BME280;11334;36.986;-121.936;2022-09-09T02:37:54;100099.06;;;23.04;61.29
22333;BME280;11334;36.986;-121.936;2022-09-09T02:40:22;100088.69;;;22.96;61.53
22333;BME280;11334;36.986;-121.936;2022-09-09T02:42:49;100102.66;;;22.88;61.60
22333;BME280;11334;36.986;-121.936;2022-09-09T02:45:18;100097.91;;;22.79;62.35
22333;BME280;11334;36.986;-121.936;2022-09-09T02:48:14;100097.84;;;22.74;62.46
22333;BME280;11334;36.986;-121.936;2022-09-09T02:50:54;100122.00;;;22.64;62.59
22333;BME280;11334;36.986;-121.936;2022-09-09T02:53:32;100125.16;;;22.56;63.09
22333;BME280;11334;36.986;-121.936;2022-09-09T02:56:09;100119.66;;;22.51;63.10
22333;BME280;11334;36.986;-121.936;2022-09-09T02:58:41;100122.88;;;22.49;63.35
22333;BME280;11334;36.986;-121.936;2022-09-09T03:01:08;100113.47;;;22.35;63.30
22333;BME280;11334;36.986;-121.936;2022-09-09T03:03:34;100133.25;;;22.40;62.97
22333;BME280;11334;36.986;-121.936;2022-09-09T03:06:01;100131.56;;;22.34;63.69
22333;BME280;11334;36.986;-121.936;2022-09-09T03:08:27;100131.22;;;22.31;63.67
22333;BME280;11334;36.986;-121.936;2022-09-09T03:10:58;100128.63;;;22.19;63.91
22333;BME280;11334;36.986;-121.936;2022-09-09T03:13:27;100132.28;;;22.14;64.23
22333;BME280;11334;36.986;-121.936;2022-09-09T03:15:53;100137.56;;;22.09;64.50
22333;BME280;11334;36.986;-121.936;2022-09-09T03:18:19;100144.09;;;21.96;64.99
22333;BME280;11334;36.986;-121.936;2022-09-09T03:20:46;100136.50;;;21.93;65.19
22333;BME280;11334;36.986;-121.936;2022-09-09T03:23:16;100151.88;;;21.93;65.11
22333;BME280;11334;36.986;-121.936;2022-09-09T03:25:49;100156.59;;;21.86;65.35
22333;BME280;11334;36.986;-121.936;2022-09-09T03:28:17;100155.78;;;21.86;65.87
22333;BME280;11334;36.986;-121.936;2022-09-09T03:30:43;100158.38;;;21.81;65.96
22333;BME280;11334;36.986;-121.936;2022-09-09T03:33:09;100164.28;;;21.78;65.91
22333;BME280;11334;36.986;-121.936;2022-09-09T03:35:35;100158.78;;;21.73;65.81
22333;BME280;11334;36.986;-121.936;2022-09-09T03:38:02;100163.75;;;21.64;66.41
22333;BME280;11334;36.986;-121.936;2022-09-09T03:40:28;100163.19;;;21.62;66.17
22333;BME280;11334;36.986;-121.936;2022-09-09T03:42:54;100156.63;;;21.58;66.41
22333;BME280;11334;36.986;-121.936;2022-09-09T03:45:20;100165.19;;;21.55;66.29
22333;BME280;11334;36.986;-121.936;2022-09-09T03:47:46;100163.00;;;21.53;66.18
22333;BME280;11334;36.986;-121.936;2022-09-09T03:50:12;100174.34;;;21.54;66.33
22333;BME280;11334;36.986;-121.936;2022-09-09T03:52:40;100172.72;;;21.54;66.12
22333;BME280;11334;36.986;-121.936;2022-09-09T03:55:08;100153.06;;;21.30;66.58
22333;BME280;11334;36.986;-121.936;2022-09-09T03:57:34;100177.09;;;21.43;66.33
22333;BME280;11334;36.986;-121.936;2022-09-09T04:00:03;100170.88;;;21.43;66.48
22333;BME280;11334;36.986;-121.936;2022-09-09T04:02:30;100185.88;;;21.39;66.59
22333;BME280;11334;36.986;-121.936;2022-09-09T04:04:57;100180.16;;;21.35;66.88
22333;BME280;11334;36.986;-121.936;2022-09-09T04:07:23;100187.44;;;21.35;66.95
22333;BME280;11334;36.986;-121.936;2022-09-09T04:09:49;100184.34;;;21.31;67.11
22333;BME280;11334;36.986;-121.936;2022-09-09T04:12:15;100195.63;;;21.28;67.11
22333;BME280;11334;36.986;-121.936;2022-09-09T04:14:42;100191.19;;;21.23;67.30
22333;BME280;11334;36.986;-121.936;2022-09-09T04:17:08;100197.63;;;21.22;67.23
22333;BME280;11334;36.986;-121.936;2022-09-09T04:19:34;100200.91;;;21.23;67.61
22333;BME280;11334;36.986;-121.936;2022-09-09T04:22:01;100192.03;;;21.12;67.88
22333;BME280;11334;36.986;-121.936;2022-09-09T04:24:27;100190.03;;;21.07;68.02
22333;BME280;11334;36.986;-121.936;2022-09-09T04:26:54;100187.59;;;21.06;67.99
22333;BME280;11334;36.986;-121.936;2022-09-09T04:29:21;100176.13;;;20.99;68.19
22333;BME280;11334;36.986;-121.936;2022-09-09T04:31:47;100174.59;;;21.03;67.70
22333;BME280;11334;36.986;-121.936;2022-09-09T04:34:13;100175.31;;;20.98;67.89
22333;BME280;11334;36.986;-121.936;2022-09-09T04:36:39;100181.03;;;21.02;68.04
22333;BME280;11334;36.986;-121.936;2022-09-09T04:39:06;100174.22;;;20.99;68.15
22333;BME280;11334;36.986;-121.936;2022-09-09T04:41:32;100165.22;;;20.94;67.83
22333;BME280;11334;36.986;-121.936;2022-09-09T04:43:59;100167.91;;;20.94;68.29
22333;BME280;11334;36.986;-121.936;2022-09-09T04:46:26;100163.00;;;20.91;67.92
22333;BME280;11334;36.986;-121.936;2022-09-09T04:48:53;100158.56;;;20.85;68.18
22333;BME280;11334;36.986;-121.936;2022-09-09T04:51:19;100153.31;;;20.79;68.11
22333;BME280;11334;36.986;-121.936;2022-09-09T04:53:46;100157.28;;;20.76;68.32
22333;BME280;11334;36.986;-121.936;2022-09-09T04:56:17;100159.28;;;20.69;68.71
22333;BME280;11334;36.986;-121.936;2022-09-09T04:58:43;100165.16;;;20.66;68.46
22333;BME280;11334;36.986;-121.936;2022-09-09T05:01:19;100167.16;;;20.71;68.55
22333;BME280;11334;36.986;-121.936;2022-09-09T05:03:46;100180.13;;;20.62;68.74
22333;BME280;11334;36.986;-121.936;2022-09-09T05:06:18;100175.31;;;20.64;68.72
22333;BME280;11334;36.986;-121.936;2022-09-09T05:08:45;100168.19;;;20.59;68.78
22333;BME280;11334;36.986;-121.936;2022-09-09T05:11:21;100165.34;;;20.54;69.06
22333;BME280;11334;36.986;-121.936;2022-09-09T05:13:53;100179.03;;;20.52;69.00
22333;BME280;11334;36.986;-121.936;2022-09-09T05:16:20;100174.22;;;20.43;69.48
22333;BME280;11334;36.986;-121.936;2022-09-09T05:18:47;100179.63;;;20.43;69.03
22333;BME280;11334;36.986;-121.936;2022-09-09T05:21:15;100175.28;;;20.42;69.20
22333;BME280;11334;36.986;-121.936;2022-09-09T05:23:42;100166.63;;;20.40;68.93
22333;BME280;11334;36.986;-121.936;2022-09-09T05:26:14;100167.34;;;20.47;69.08
22333;BME280;11334;36.986;-121.936;2022-09-09T05:28:41;100156.78;;;20.45;69.07
22333;BME280;11334;36.986;-121.936;2022-09-09T05:31:09;100153.06;;;20.46;69.14
22333;BME280;11334;36.986;-121.936;2022-09-09T05:33:39;100148.25;;;20.48;68.89
22333;BME280;11334;36.986;-121.936;2022-09-09T05:36:11;100138.31;;;20.49;68.75
22333;BME280;11334;36.986;-121.936;2022-09-09T05:38:42;100129.06;;;20.45;68.40
22333;BME280;11334;36.986;-121.936;2022-09-09T05:41:10;100123.69;;;20.45;68.23
22333;BME280;11334;36.986;-121.936;2022-09-09T05:43:41;100129.28;;;20.43;68.60
22333;BME280;11334;36.986;-121.936;2022-09-09T05:46:11;100122.97;;;20.38;68.68
22333;BME280;11334;36.986;-121.936;2022-09-09T05:48:43;100108.59;;;20.32;68.67
22333;BME280;11334;36.986;-121.936;2022-09-09T05:51:14;100118.66;;;20.37;68.92
22333;BME280;11334;36.986;-121.936;2022-09-09T05:53:44;100127.31;;;20.27;68.95
22333;BME280;11334;36.986;-121.936;2022-09-09T05:56:13;100115.59;;;20.22;69.02
22333;BME280;11334;36.986;-121.936;2022-09-09T05:58:44;100117.69;;;20.20;69.38
22333;BME280;11334;36.986;-121.936;2022-09-09T06:01:15;100117.25;;;20.12;69.43
22333;BME280;11334;36.986;-121.936;2022-09-09T06:03:43;100102.97;;;20.11;69.63
22333;BME280;11334;36.986;-121.936;2022-09-09T06:06:12;100111.38;;;20.03;69.81
22333;BME280;11334;36.986;-121.936;2022-09-09T06:08:41;100120.41;;;20.09;69.67
22333;BME280;11334;36.986;-121.936;2022-09-09T06:11:12;100116.88;;;20.08;69.75
22333;BME280;11334;36.986;-121.936;2022-09-09T06:13:39;100110.22;;;19.99;69.71
22333;BME280;11334;36.986;-121.936;2022-09-09T06:16:11;100112.09;;;19.99;70.30
22333;BME280;11334;36.986;-121.936;2022-09-09T06:18:38;100115.00;;;19.97;70.06
22333;BME280;11334;36.986;-121.936;2022-09-09T06:21:06;100122.00;;;19.98;70.25
22333;BME280;11334;36.986;-121.936;2022-09-09T06:23:33;100124.69;;;19.98;70.13
22333;BME280;11334;36.986;-121.936;2022-09-09T06:26:17;100128.09;;;19.94;70.20
22333;BME280;11334;36.986;-121.936;2022-09-09T06:28:45;100113.94;;;19.87;70.67
22333;BME280;11334;36.986;-121.936;2022-09-09T06:31:12;100111.25;;;19.87;70.44
22333;BME280;11334;36.986;-121.936;2022-09-09T06:33:40;100094.50;;;19.85;70.27
22333;BME280;11334;36.986;-121.936;2022-09-09T06:36:11;100100.69;;;19.86;70.08
22333;BME280;11334;36.986;-121.936;2022-09-09T06:38:39;100090.75;;;19.86;69.95
22333;BME280;11334;36.986;-121.936;2022-09-09T06:41:05;100095.31;;;19.86;69.89
22333;BME280;11334;36.986;-121.936;2022-09-09T06:43:31;100086.09;;;19.82;69.74
22333;BME280;11334;36.986;-121.936;2022-09-09T06:46:03;100077.91;;;19.77;70.26
22333;BME280;11334;36.986;-121.936;2022-09-09T06:48:30;100074.97;;;19.78;69.99
22333;BME280;11334;36.986;-121.936;2022-09-09T06:51:11;100074.75;;;19.80;69.55
22333;BME280;11334;36.986;-121.936;2022-09-09T06:53:38;100072.38;;;19.72;69.96
22333;BME280;11334;36.986;-121.936;2022-09-09T06:58:39;100065.94;;;19.73;69.65
22333;BME280;11334;36.986;-121.936;2022-09-09T07:01:12;100065.94;;;19.73;69.90
22333;BME280;11334;36.986;-121.936;2022-09-09T07:03:42;100066.16;;;19.71;69.74
22333;BME280;11334;36.986;-121.936;2022-09-09T07:06:18;100072.59;;;19.70;70.01
22333;BME280;11334;36.986;-121.936;2022-09-09T07:08:56;100071.41;;;19.66;70.40
22333;BME280;11334;36.986;-121.936;2022-09-09T07:11:30;100078.91;;;19.64;70.08
22333;BME280;11334;36.986;-121.936;2022-09-09T07:13:58;100072.13;;;19.62;70.21
22333;BME280;11334;36.986;-121.936;2022-09-09T07:16:25;100061.94;;;19.53;70.04
22333;BME280;11334;36.986;-121.936;2022-09-09T07:18:53;100064.34;;;19.54;70.09
22333;BME280;11334;36.986;-121.936;2022-09-09T07:21:24;100059.31;;;19.46;70.44
22333;BME280;11334;36.986;-121.936;2022-09-09T07:23:52;100059.22;;;19.53;70.56
22333;BME280;11334;36.986;-121.936;2022-09-09T07:26:21;100054.53;;;19.48;70.17
22333;BME280;11334;36.986;-121.936;2022-09-09T07:28:48;100051.25;;;19.46;70.35
22333;BME280;11334;36.986;-121.936;2022-09-09T07:31:23;100037.59;;;19.48;69.92
22333;BME280;11334;36.986;-121.936;2022-09-09T07:33:50;100033.25;;;19.47;70.30
22333;BME280;11334;36.986;-121.936;2022-09-09T07:36:22;100033.13;;;19.42;69.90
22333;BME280;11334;36.986;-121.936;2022-09-09T07:38:54;100033.25;;;19.35;70.35
22333;BME280;11334;36.986;-121.936;2022-09-09T07:41:28;100032.44;;;19.35;70.66
22333;BME280;11334;36.986;-121.936;2022-09-09T07:43:56;100034.66;;;19.38;70.42
22333;BME280;11334;36.986;-121.936;2022-09-09T07:46:26;100030.69;;;19.40;70.71
22333;BME280;11334;36.986;-121.936;2022-09-09T07:48:54;100034.75;;;19.31;70.76
22333;BME280;11334;36.986;-121.936;2022-09-09T07:51:42;100028.91;;;19.34;70.31
22333;BME280;11334;36.986;-121.936;2022-09-09T07:54:11;100020.50;;;19.31;70.03
22333;BME280;11334;36.986;-121.936;2022-09-09T07:56:39;100014.53;;;19.29;70.43
22333;BME280;11334;36.986;-121.936;2022-09-09T07:59:05;100015.47;;;19.34;70.55
22333;BME280;11334;36.986;-121.936;2022-09-09T08:01:34;100010.69;;;19.25;70.58
22333;BME280;11334;36.986;-121.936;2022-09-09T08:04:11;100028.16;;;19.16;70.80
22333;BME280;11334;36.986;-121.936;2022-09-09T08:06:42;100026.75;;;19.14;71.37
22333;BME280;11334;36.986;-121.936;2022-09-09T08:09:09;100017.88;;;19.13;71.31
22333;BME280;11334;36.986;-121.936;2022-09-09T08:11:36;100010.16;;;19.17;71.16
22333;BME280;11334;36.986;-121.936;2022-09-09T08:14:03;100009.16;;;19.18;70.68
22333;BME280;11334;36.986;-121.936;2022-09-09T08:16:32;99992.91;;;19.13;70.72
22333;BME280;11334;36.986;-121.936;2022-09-09T08:18:59;99990.56;;;19.16;70.49
22333;BME280;11334;36.986;-121.936;2022-09-09T08:21:27;99988.56;;;19.12;70.60
22333;BME280;11334;36.986;-121.936;2022-09-09T08:23:56;99979.69;;;19.11;70.77
22333;BME280;11334;36.986;-121.936;2022-09-09T08:28:55;99976.41;;;19.09;70.33
22333;BME280;11334;36.986;-121.936;2022-09-09T08:31:28;99976.06;;;19.06;70.92
22333;BME280;11334;36.986;-121.936;2022-09-09T08:33:56;99976.66;;;19.08;70.98
22333;BME280;11334;36.986;-121.936;2022-09-09T08:36:27;99974.41;;;19.05;71.12
22333;BME280;11334;36.986;-121.936;2022-09-09T08:38:55;99973.22;;;19.01;70.85
22333;BME280;11334;36.986;-121.936;2022-09-09T08:52:29;99923.84;;;19.02;70.65
22333;BME280;11334;36.986;-121.936;2022-09-09T08:55:03;99922.13;;;18.90;70.96
22333;BME280;11334;36.986;-121.936;2022-09-09T08:57:36;99937.00;;;18.92;71.05
22333;BME280;11334;36.986;-121.936;2022-09-09T09:00:03;99926.03;;;18.94;70.94
22333;BME280;11334;36.986;-121.936;2022-09-09T09:02:42;99918.22;;;18.92;70.83
22333;BME280;11334;36.986;-121.936;2022-09-09T09:10:49;99894.00;;;18.81;71.15
22333;BME280;11334;36.986;-121.936;2022-09-09T09:15:56;99889.31;;;18.76;71.32
22333;BME280;11334;36.986;-121.936;2022-09-09T09:18:24;99891.31;;;18.81;71.75
22333;BME280;11334;36.986;-121.936;2022-09-09T09:21:03;99881.25;;;18.76;72.00
22333;BME280;11334;36.986;-121.936;2022-09-09T09:23:41;99886.84;;;18.75;71.97
22333;BME280;11334;36.986;-121.936;2022-09-09T09:26:10;99887.09;;;18.73;72.82
22333;BME280;11334;36.986;-121.936;2022-09-09T09:28:40;99870.19;;;18.73;72.22
22333;BME280;11334;36.986;-121.936;2022-09-09T09:31:10;99862.81;;;18.68;72.00
22333;BME280;11334;36.986;-121.936;2022-09-09T09:33:50;99851.47;;;18.67;72.16
22333;BME280;11334;36.986;-121.936;2022-09-09T09:36:40;99856.16;;;18.71;71.95
22333;BME280;11334;36.986;-121.936;2022-09-09T09:39:05;99861.41;;;18.66;72.10
22333;BME280;11334;36.986;-121.936;2022-09-09T09:44:05;99860.31;;;18.56;72.85
22333;BME280;11334;36.986;-121.936;2022-09-09T09:46:33;99857.19;;;18.59;72.62
22333;BME280;11334;36.986;-121.936;2022-09-09T09:49:04;99854.13;;;18.55;72.18
22333;BME280;11334;36.986;-121.936;2022-09-09T09:51:33;99852.41;;;18.61;72.39
22333;BME280;11334;36.986;-121.936;2022-09-09T09:54:31;99850.53;;;18.61;72.52
22333;BME280;11334;36.986;-121.936;2022-09-09T09:57:12;99857.53;;;18.62;72.44
22333;BME280;11334;36.986;-121.936;2022-09-09T09:59:39;99862.53;;;18.59;72.50
22333;BME280;11334;36.986;-121.936;2022-09-09T10:04:40;99857.41;;;18.57;72.58
22333;BME280;11334;36.986;-121.936;2022-09-09T10:07:20;99850.63;;;18.55;72.50
22333;BME280;11334;36.986;-121.936;2022-09-09T10:09:57;99850.50;;;18.50;72.47
22333;BME280;11334;36.986;-121.936;2022-09-09T10:15:26;99843.25;;;18.50;72.33
22333;BME280;11334;36.986;-121.936;2022-09-09T10:18:24;99838.13;;;18.49;72.59
22333;BME280;11334;36.986;-121.936;2022-09-09T10:23:42;99839.63;;;18.45;72.64
22333;BME280;11334;36.986;-121.936;2022-09-09T10:26:51;99833.66;;;18.43;72.78
22333;BME280;11334;36.986;-121.936;2022-09-09T10:40:48;99836.06;;;18.33;72.98
22333;BME280;11334;36.986;-121.936;2022-09-09T10:48:42;99817.75;;;18.30;72.59
22333;BME280;11334;36.986;-121.936;2022-09-09T10:56:43;99829.56;;;18.29;72.95
22333;BME280;11334;36.986;-121.936;2022-09-09T10:59:18;99832.22;;;18.29;72.91
22333;BME280;11334;36.986;-121.936;2022-09-09T11:02:00;99830.81;;;18.27;73.16
22333;BME280;11334;36.986;-121.936;2022-09-09T11:04:57;99826.72;;;18.24;72.97
22333;BME280;11334;36.986;-121.936;2022-09-09T11:07:55;99814.69;;;18.15;73.33
22333;BME280;11334;36.986;-121.936;2022-09-09T11:13:49;99815.72;;;18.14;73.23
22333;BME280;11334;36.986;-121.936;2022-09-09T11:16:50;99816.75;;;18.13;72.97
22333;BME280;11334;36.986;-121.936;2022-09-09T11:21:47;99806.03;;;18.13;73.01
22333;BME280;11334;36.986;-121.936;2022-09-09T11:24:20;99799.03;;;18.12;73.02
22333;BME280;11334;36.986;-121.936;2022-09-09T11:26:59;99793.91;;;18.11;73.37
22333;BME280;11334;36.986;-121.936;2022-09-09T11:29:51;99785.72;;;18.06;73.33
22333;BME280;11334;36.986;-121.936;2022-09-09T11:35:38;99790.34;;;17.99;74.00
22333;BME280;11334;36.986;-121.936;2022-09-09T11:38:16;99795.47;;;18.01;74.45
22333;BME280;11334;36.986;-121.936;2022-09-09T11:40:45;99783.28;;;18.04;73.19
22333;BME280;11334;36.986;-121.936;2022-09-09T11:43:15;99777.09;;;18.04;72.83
22333;BME280;11334;36.986;-121.936;2022-09-09T11:45:55;99762.13;;;17.97;72.81
22333;BME280;11334;36.986;-121.936;2022-09-09T11:48:38;99771.13;;;18.02;73.15
22333;BME280;11334;36.986;-121.936;2022-09-09T11:51:10;99770.31;;;18.02;73.11
22333;BME280;11334;36.986;-121.936;2022-09-09T11:53:52;99761.66;;;18.00;73.50
22333;BME280;11334;36.986;-121.936;2022-09-09T11:56:43;99762.25;;;18.02;73.22
22333;BME280;11334;36.986;-121.936;2022-09-09T12:01:55;99754.66;;;17.99;73.71
22333;BME280;11334;36.986;-121.936;2022-09-09T12:04:42;99753.25;;;17.96;73.57
22333;BME280;11334;36.986;-121.936;2022-09-09T12:09:52;99754.50;;;17.94;73.57
22333;BME280;11334;36.986;-121.936;2022-09-09T12:12:24;99751.47;;;17.90;73.03
22333;BME280;11334;36.986;-121.936;2022-09-09T12:15:18;99751.22;;;17.80;73.52
22333;BME280;11334;36.986;-121.936;2022-09-09T12:17:49;99748.75;;;17.79;73.70
22333;BME280;11334;36.986;-121.936;2022-09-09T12:20:35;99756.44;;;17.75;74.06
22333;BME280;11334;36.986;-121.936;2022-09-09T12:36:57;99748.25;;;17.71;74.52
22333;BME280;11334;36.986;-121.936;2022-09-09T12:39:35;99748.03;;;17.72;74.49
22333;BME280;11334;36.986;-121.936;2022-09-09T12:42:03;99748.78;;;17.61;74.76
22333;BME280;11334;36.986;-121.936;2022-09-09T12:44:30;99756.97;;;17.66;74.45
22333;BME280;11334;36.986;-121.936;2022-09-09T12:47:00;99753.72;;;17.64;74.66
22333;BME280;11334;36.986;-121.936;2022-09-09T12:49:37;99744.97;;;17.69;74.47
22333;BME280;11334;36.986;-121.936;2022-09-09T12:52:20;99747.91;;;17.67;74.22
22333;BME280;11334;36.986;-121.936;2022-09-09T12:54:49;99742.41;;;17.62;74.17
22333;BME280;11334;36.986;-121.936;2022-09-09T12:57:21;99745.44;;;17.66;74.22
22333;BME280;11334;36.986;-121.936;2022-09-09T12:59:48;99743.81;;;17.65;74.24
22333;BME280;11334;36.986;-121.936;2022-09-09T13:02:23;99738.66;;;17.63;73.71
22333;BME280;11334;36.986;-121.936;2022-09-09T13:04:52;99746.34;;;17.60;73.92
22333;BME280;11334;36.986;-121.936;2022-09-09T13:07:20;99741.50;;;17.50;74.41
22333;BME280;11334;36.986;-121.936;2022-09-09T13:09:48;99741.31;;;17.52;74.46
22333;BME280;11334;36.986;-121.936;2022-09-09T13:12:21;99754.41;;;17.42;74.78
22333;BME280;11334;36.986;-121.936;2022-09-09T13:14:50;99743.75;;;17.36;75.14
22333;BME280;11334;36.986;-121.936;2022-09-09T13:17:21;99743.69;;;17.42;75.19
22333;BME280;11334;36.986;-121.936;2022-09-09T13:19:49;99739.34;;;17.41;74.63
22333;BME280;11334;36.986;-121.936;2022-09-09T13:22:34;99742.78;;;17.48;74.47
22333;BME280;11334;36.986;-121.936;2022-09-09T13:25:04;99748.50;;;17.51;74.32
22333;BME280;11334;36.986;-121.936;2022-09-09T13:27:34;99743.09;;;17.40;74.14
22333;BME280;11334;36.986;-121.936;2022-09-09T13:33:01;99758.91;;;17.41;74.96
22333;BME280;11334;36.986;-121.936;2022-09-09T13:35:28;99753.81;;;17.40;74.72
22333;BME280;11334;36.986;-121.936;2022-09-09T13:37:55;99755.28;;;17.36;74.74
22333;BME280;11334;36.986;-121.936;2022-09-09T13:40:22;99763.72;;;17.40;73.95
22333;BME280;11334;36.986;-121.936;2022-09-09T13:42:55;99767.09;;;17.29;74.46
22333;BME280;11334;36.986;-121.936;2022-09-09T13:45:24;99777.97;;;17.34;74.49
22333;BME280;11334;36.986;-121.936;2022-09-09T13:47:53;99788.22;;;17.37;74.42
22333;BME280;11334;36.986;-121.936;2022-09-09T13:50:23;99777.81;;;17.29;74.69
22333;BME280;11334;36.986;-121.936;2022-09-09T13:52:54;99783.47;;;17.21;74.77
22333;BME280;11334;36.986;-121.936;2022-09-09T13:55:24;99791.00;;;17.30;74.97
22333;BME280;11334;36.986;-121.936;2022-09-09T13:57:57;99795.09;;;17.33;74.43
22333;BME280;11334;36.986;-121.936;2022-09-09T14:00:24;99770.13;;;17.14;74.01
22333;BME280;11334;36.986;-121.936;2022-09-09T14:02:51;99799.09;;;17.24;74.09
22333;BME280;11334;36.986;-121.936;2022-09-09T14:05:18;99805.41;;;17.29;74.61
22333;BME280;11334;36.986;-121.936;2022-09-09T14:07:45;99809.13;;;17.28;74.48
22333;BME280;11334;36.986;-121.936;2022-09-09T14:10:12;99804.75;;;17.34;74.34
22333;BME280;11334;36.986;-121.936;2022-09-09T14:12:38;99794.50;;;17.31;74.26
22333;BME280;11334;36.986;-121.936;2022-09-09T14:15:06;99800.44;;;17.33;74.62
22333;BME280;11334;36.986;-121.936;2022-09-09T14:17:33;99804.75;;;17.34;74.42
22333;BME280;11334;36.986;-121.936;2022-09-09T14:20:02;99808.25;;;17.34;74.61
22333;BME280;11334;36.986;-121.936;2022-09-09T14:22:29;99808.25;;;17.34;74.58
22333;BME280;11334;36.986;-121.936;2022-09-09T14:24:55;99807.22;;;17.35;74.38
22333;BME280;11334;36.986;-121.936;2022-09-09T14:27:23;99813.59;;;17.34;74.70
22333;BME280;11334;36.986;-121.936;2022-09-09T14:29:51;99817.31;;;17.33;74.85
22333;BME280;11334;36.986;-121.936;2022-09-09T14:32:18;99811.97;;;17.33;74.87
22333;BME280;11334;36.986;-121.936;2022-09-09T14:34:45;99811.16;;;17.33;75.46
22333;BME280;11334;36.986;-121.936;2022-09-09T14:37:11;99823.59;;;17.45;75.39
22333;BME280;11334;36.986;-121.936;2022-09-09T14:39:37;99819.69;;;17.41;75.21
22333;BME280;11334;36.986;-121.936;2022-09-09T14:42:03;99816.97;;;17.47;75.51
22333;BME280;11334;36.986;-121.936;2022-09-09T14:44:30;99821.50;;;17.47;75.72
22333;BME280;11334;36.986;-121.936;2022-09-09T14:46:57;99809.28;;;17.51;76.04
22333;BME280;11334;36.986;-121.936;2022-09-09T14:49:24;99814.00;;;17.55;76.42
22333;BME280;11334;36.986;-121.936;2022-09-09T14:51:50;99809.84;;;17.59;76.29
22333;BME280;11334;36.986;-121.936;2022-09-09T14:54:16;99808.94;;;17.65;76.00